sensor_id;sensor_type;location;lat;lon;timestamp;P1;durP1;ratioP1;P2;durP2;ratioP2
78402;SDS011;67687;43.508;1.504;2023-06-14T00:02:21;5.32;;;2.72;;
78402;SDS011;67687;43.508;1.504;2023-06-14T00:04:48;5.53;;;3.05;;
78402;SDS011;67687;43.508;1.504;2023-06-14T00:07:17;5.35;;;3.30;;
78402;SDS011;67687;43.508;1.504;2023-06-14T00:09:44;6.37;;;3.30;;
78402;SDS011;67687;43.508;1.504;2023-06-14T00:12:11;7.18;;;3.42;;
78402;SDS011;67687;43.508;1.504;2023-06-14T00:14:39;6.43;;;3.45;;
78402;SDS011;67687;43.508;1.504;2023-06-14T00:17:06;5.85;;;3.30;;
78402;SDS011;67687;43.508;1.504;2023-06-14T00:19:32;5.28;;;3.17;;
78402;SDS011;67687;43.508;1.504;2023-06-14T00:22:01;5.90;;;3.63;;
78402;SDS011;67687;43.508;1.504;2023-06-14T00:24:28;6.60;;;3.70;;
78402;SDS011;67687;43.508;1.504;2023-06-14T00:26:55;6.57;;;3.38;;
78402;SDS011;67687;43.508;1.504;2023-06-14T00:29:21;5.80;;;3.30;;
78402;SDS011;67687;43.508;1.504;2023-06-14T00:31:50;5.78;;;3.30;;
78402;SDS011;67687;43.508;1.504;2023-06-14T00:34:17;7.97;;;3.47;;
78402;SDS011;67687;43.508;1.504;2023-06-14T00:36:43;5.45;;;3.22;;
78402;SDS011;67687;43.508;1.504;2023-06-14T00:39:10;5.78;;;3.70;;
78402;SDS011;67687;43.508;1.504;2023-06-14T00:41:37;6.15;;;3.22;;
78402;SDS011;67687;43.508;1.504;2023-06-14T00:44:04;6.28;;;3.50;;
78402;SDS011;67687;43.508;1.504;2023-06-14T00:46:31;5.13;;;3.13;;
78402;SDS011;67687;43.508;1.504;2023-06-14T00:49:00;5.72;;;3.28;;
78402;SDS011;67687;43.508;1.504;2023-06-14T00:51:27;5.60;;;3.50;;
78402;SDS011;67687;43.508;1.504;2023-06-14T00:53:54;5.85;;;3.15;;
78402;SDS011;67687;43.508;1.504;2023-06-14T00:56:21;5.65;;;3.85;;
78402;SDS011;67687;43.508;1.504;2023-06-14T00:58:48;5.53;;;3.50;;
78402;SDS011;67687;43.508;1.504;2023-06-14T01:01:16;5.18;;;3.42;;
78402;SDS011;67687;43.508;1.504;2023-06-14T01:03:42;7.00;;;3.50;;
78402;SDS011;67687;43.508;1.504;2023-06-14T01:06:13;5.47;;;3.30;;
78402;SDS011;67687;43.508;1.504;2023-06-14T01:08:54;6.10;;;3.72;;
78402;SDS011;67687;43.508;1.504;2023-06-14T01:11:26;6.20;;;3.80;;
78402;SDS011;67687;43.508;1.504;2023-06-14T01:13:57;7.75;;;4.68;;
78402;SDS011;67687;43.508;1.504;2023-06-14T01:16:26;6.93;;;4.60;;
78402;SDS011;67687;43.508;1.504;2023-06-14T01:18:53;8.20;;;4.70;;
78402;SDS011;67687;43.508;1.504;2023-06-14T01:21:23;8.82;;;5.25;;
78402;SDS011;67687;43.508;1.504;2023-06-14T01:23:52;8.17;;;5.10;;
78402;SDS011;67687;43.508;1.504;2023-06-14T01:26:20;9.55;;;6.50;;
78402;SDS011;67687;43.508;1.504;2023-06-14T01:28:46;9.98;;;6.40;;
78402;SDS011;67687;43.508;1.504;2023-06-14T01:31:16;10.88;;;7.30;;
78402;SDS011;67687;43.508;1.504;2023-06-14T01:33:44;9.25;;;6.78;;
78402;SDS011;67687;43.508;1.504;2023-06-14T01:36:11;10.07;;;6.60;;
78402;SDS011;67687;43.508;1.504;2023-06-14T01:38:38;9.00;;;6.05;;
78402;SDS011;67687;43.508;1.504;2023-06-14T01:41:07;9.00;;;5.88;;
78402;SDS011;67687;43.508;1.504;2023-06-14T01:43:34;8.90;;;5.38;;
78402;SDS011;67687;43.508;1.504;2023-06-14T01:46:01;9.52;;;6.05;;
78402;SDS011;67687;43.508;1.504;2023-06-14T01:48:29;8.57;;;5.97;;
78402;SDS011;67687;43.508;1.504;2023-06-14T01:50:55;8.07;;;5.72;;
78402;SDS011;67687;43.508;1.504;2023-06-14T01:53:22;8.32;;;5.90;;
78402;SDS011;67687;43.508;1.504;2023-06-14T01:55:49;8.45;;;5.68;;
78402;SDS011;67687;43.508;1.504;2023-06-14T01:58:20;8.55;;;6.00;;
78402;SDS011;67687;43.508;1.504;2023-06-14T02:00:47;8.43;;;5.50;;
78402;SDS011;67687;43.508;1.504;2023-06-14T02:03:13;8.52;;;6.53;;
78402;SDS011;67687;43.508;1.504;2023-06-14T02:05:40;10.55;;;6.53;;
78402;SDS011;67687;43.508;1.504;2023-06-14T02:08:07;10.32;;;6.50;;
78402;SDS011;67687;43.508;1.504;2023-06-14T02:10:33;10.13;;;7.40;;
78402;SDS011;67687;43.508;1.504;2023-06-14T02:13:00;12.63;;;7.93;;
78402;SDS011;67687;43.508;1.504;2023-06-14T02:15:28;11.48;;;7.40;;
78402;SDS011;67687;43.508;1.504;2023-06-14T02:17:59;11.20;;;7.38;;
78402;SDS011;67687;43.508;1.504;2023-06-14T02:20:26;10.90;;;7.38;;
78402;SDS011;67687;43.508;1.504;2023-06-14T02:22:53;12.77;;;7.65;;
78402;SDS011;67687;43.508;1.504;2023-06-14T02:25:20;12.30;;;7.97;;
78402;SDS011;67687;43.508;1.504;2023-06-14T02:27:47;12.27;;;7.95;;
78402;SDS011;67687;43.508;1.504;2023-06-14T02:30:13;12.15;;;8.02;;
78402;SDS011;67687;43.508;1.504;2023-06-14T02:32:42;11.43;;;7.93;;
78402;SDS011;67687;43.508;1.504;2023-06-14T02:35:09;13.20;;;8.40;;
78402;SDS011;67687;43.508;1.504;2023-06-14T02:37:36;13.37;;;8.60;;
78402;SDS011;67687;43.508;1.504;2023-06-14T02:40:03;14.13;;;8.98;;
78402;SDS011;67687;43.508;1.504;2023-06-14T02:42:31;12.30;;;8.52;;
78402;SDS011;67687;43.508;1.504;2023-06-14T02:44:57;14.85;;;9.05;;
78402;SDS011;67687;43.508;1.504;2023-06-14T02:47:25;13.50;;;8.82;;
78402;SDS011;67687;43.508;1.504;2023-06-14T02:49:53;12.13;;;8.17;;
78402;SDS011;67687;43.508;1.504;2023-06-14T02:52:20;15.18;;;10.20;;
78402;SDS011;67687;43.508;1.504;2023-06-14T02:54:47;14.45;;;9.77;;
78402;SDS011;67687;43.508;1.504;2023-06-14T02:57:14;15.25;;;9.23;;
78402;SDS011;67687;43.508;1.504;2023-06-14T02:59:41;14.13;;;10.27;;
78402;SDS011;67687;43.508;1.504;2023-06-14T03:02:07;15.20;;;9.83;;
78402;SDS011;67687;43.508;1.504;2023-06-14T03:04:34;15.35;;;9.75;;
78402;SDS011;67687;43.508;1.504;2023-06-14T03:07:04;15.38;;;9.90;;
78402;SDS011;67687;43.508;1.504;2023-06-14T03:09:35;14.43;;;9.77;;
78402;SDS011;67687;43.508;1.504;2023-06-14T03:12:03;14.80;;;9.45;;
78402;SDS011;67687;43.508;1.504;2023-06-14T03:14:31;16.53;;;9.43;;
78402;SDS011;67687;43.508;1.504;2023-06-14T03:16:58;13.88;;;9.73;;
78402;SDS011;67687;43.508;1.504;2023-06-14T03:19:25;15.32;;;10.15;;
78402;SDS011;67687;43.508;1.504;2023-06-14T03:21:52;15.65;;;10.30;;
78402;SDS011;67687;43.508;1.504;2023-06-14T03:24:23;15.10;;;10.20;;
78402;SDS011;67687;43.508;1.504;2023-06-14T03:26:52;13.90;;;10.00;;
78402;SDS011;67687;43.508;1.504;2023-06-14T03:29:19;17.08;;;10.73;;
78402;SDS011;67687;43.508;1.504;2023-06-14T03:31:56;13.70;;;10.23;;
78402;SDS011;67687;43.508;1.504;2023-06-14T03:34:23;14.65;;;10.10;;
78402;SDS011;67687;43.508;1.504;2023-06-14T03:36:50;13.90;;;10.18;;
78402;SDS011;67687;43.508;1.504;2023-06-14T03:39:17;15.77;;;10.23;;
78402;SDS011;67687;43.508;1.504;2023-06-14T03:41:45;14.20;;;9.80;;
78402;SDS011;67687;43.508;1.504;2023-06-14T03:46:40;15.38;;;9.82;;
78402;SDS011;67687;43.508;1.504;2023-06-14T03:49:07;15.35;;;9.60;;
78402;SDS011;67687;43.508;1.504;2023-06-14T03:51:34;16.67;;;9.87;;
78402;SDS011;67687;43.508;1.504;2023-06-14T03:54:01;15.02;;;9.85;;
78402;SDS011;67687;43.508;1.504;2023-06-14T03:56:28;13.02;;;9.60;;
78402;SDS011;67687;43.508;1.504;2023-06-14T03:58:56;14.00;;;9.80;;
78402;SDS011;67687;43.508;1.504;2023-06-14T04:01:22;14.50;;;10.10;;
78402;SDS011;67687;43.508;1.504;2023-06-14T04:03:55;15.60;;;10.03;;
78402;SDS011;67687;43.508;1.504;2023-06-14T04:06:22;13.77;;;9.50;;
78402;SDS011;67687;43.508;1.504;2023-06-14T04:08:50;15.02;;;9.98;;
78402;SDS011;67687;43.508;1.504;2023-06-14T04:11:17;14.07;;;9.70;;
78402;SDS011;67687;43.508;1.504;2023-06-14T04:13:44;15.00;;;9.68;;
78402;SDS011;67687;43.508;1.504;2023-06-14T04:16:13;14.50;;;9.77;;
78402;SDS011;67687;43.508;1.504;2023-06-14T04:18:40;13.60;;;9.98;;
78402;SDS011;67687;43.508;1.504;2023-06-14T04:21:06;14.93;;;9.52;;
78402;SDS011;67687;43.508;1.504;2023-06-14T04:23:33;13.25;;;9.07;;
78402;SDS011;67687;43.508;1.504;2023-06-14T04:26:00;14.13;;;10.02;;
78402;SDS011;67687;43.508;1.504;2023-06-14T04:28:27;15.70;;;9.87;;
78402;SDS011;67687;43.508;1.504;2023-06-14T04:30:55;14.00;;;9.60;;
78402;SDS011;67687;43.508;1.504;2023-06-14T04:33:23;13.68;;;9.70;;
78402;SDS011;67687;43.508;1.504;2023-06-14T04:35:50;15.27;;;10.30;;
78402;SDS011;67687;43.508;1.504;2023-06-14T04:38:19;14.10;;;10.90;;
78402;SDS011;67687;43.508;1.504;2023-06-14T04:40:49;17.90;;;11.27;;
78402;SDS011;67687;43.508;1.504;2023-06-14T04:43:18;16.92;;;10.77;;
78402;SDS011;67687;43.508;1.504;2023-06-14T04:45:51;16.27;;;10.63;;
78402;SDS011;67687;43.508;1.504;2023-06-14T04:48:19;15.98;;;11.00;;
78402;SDS011;67687;43.508;1.504;2023-06-14T04:50:48;16.88;;;11.27;;
78402;SDS011;67687;43.508;1.504;2023-06-14T04:53:18;16.23;;;11.23;;
78402;SDS011;67687;43.508;1.504;2023-06-14T04:55:46;20.98;;;12.45;;
78402;SDS011;67687;43.508;1.504;2023-06-14T04:58:13;21.70;;;12.13;;
78402;SDS011;67687;43.508;1.504;2023-06-14T05:00:40;20.33;;;12.07;;
78402;SDS011;67687;43.508;1.504;2023-06-14T05:03:08;18.13;;;11.95;;
78402;SDS011;67687;43.508;1.504;2023-06-14T05:05:38;17.13;;;12.10;;
78402;SDS011;67687;43.508;1.504;2023-06-14T05:08:07;17.73;;;11.68;;
78402;SDS011;67687;43.508;1.504;2023-06-14T05:10:34;19.48;;;13.05;;
78402;SDS011;67687;43.508;1.504;2023-06-14T05:13:01;21.00;;;13.50;;
78402;SDS011;67687;43.508;1.504;2023-06-14T05:15:28;20.20;;;13.73;;
78402;SDS011;67687;43.508;1.504;2023-06-14T05:17:55;21.00;;;14.00;;
78402;SDS011;67687;43.508;1.504;2023-06-14T05:20:22;21.13;;;13.35;;
78402;SDS011;67687;43.508;1.504;2023-06-14T05:22:50;22.40;;;15.07;;
78402;SDS011;67687;43.508;1.504;2023-06-14T05:25:19;21.35;;;13.75;;
78402;SDS011;67687;43.508;1.504;2023-06-14T05:27:46;20.70;;;13.85;;
78402;SDS011;67687;43.508;1.504;2023-06-14T05:30:13;20.67;;;13.77;;
78402;SDS011;67687;43.508;1.504;2023-06-14T05:32:40;23.10;;;14.55;;
78402;SDS011;67687;43.508;1.504;2023-06-14T05:35:07;21.10;;;13.48;;
78402;SDS011;67687;43.508;1.504;2023-06-14T05:37:35;22.77;;;14.60;;
78402;SDS011;67687;43.508;1.504;2023-06-14T05:40:02;21.70;;;14.05;;
78402;SDS011;67687;43.508;1.504;2023-06-14T05:42:32;21.63;;;13.73;;
78402;SDS011;67687;43.508;1.504;2023-06-14T05:44:59;20.42;;;13.52;;
78402;SDS011;67687;43.508;1.504;2023-06-14T05:47:26;20.55;;;13.65;;
78402;SDS011;67687;43.508;1.504;2023-06-14T05:49:53;22.42;;;14.07;;
78402;SDS011;67687;43.508;1.504;2023-06-14T05:52:20;21.10;;;14.45;;
78402;SDS011;67687;43.508;1.504;2023-06-14T05:54:47;21.97;;;13.97;;
78402;SDS011;67687;43.508;1.504;2023-06-14T05:57:14;22.08;;;13.43;;
78402;SDS011;67687;43.508;1.504;2023-06-14T05:59:42;21.13;;;15.35;;
78402;SDS011;67687;43.508;1.504;2023-06-14T06:02:09;18.75;;;13.05;;
78402;SDS011;67687;43.508;1.504;2023-06-14T06:04:35;21.88;;;14.00;;
78402;SDS011;67687;43.508;1.504;2023-06-14T06:07:02;19.93;;;13.50;;
78402;SDS011;67687;43.508;1.504;2023-06-14T06:09:30;23.08;;;14.50;;
78402;SDS011;67687;43.508;1.504;2023-06-14T06:11:57;19.05;;;13.82;;
78402;SDS011;67687;43.508;1.504;2023-06-14T06:14:23;23.25;;;14.35;;
78402;SDS011;67687;43.508;1.504;2023-06-14T06:16:51;18.92;;;13.95;;
78402;SDS011;67687;43.508;1.504;2023-06-14T06:19:18;21.67;;;14.67;;
78402;SDS011;67687;43.508;1.504;2023-06-14T06:21:45;22.92;;;14.40;;
78402;SDS011;67687;43.508;1.504;2023-06-14T06:24:12;20.70;;;13.35;;
78402;SDS011;67687;43.508;1.504;2023-06-14T06:26:39;19.73;;;13.75;;
78402;SDS011;67687;43.508;1.504;2023-06-14T06:29:06;21.55;;;14.18;;
78402;SDS011;67687;43.508;1.504;2023-06-14T06:31:32;23.60;;;13.60;;
78402;SDS011;67687;43.508;1.504;2023-06-14T06:34:01;22.38;;;14.07;;
78402;SDS011;67687;43.508;1.504;2023-06-14T06:36:27;20.92;;;14.23;;
78402;SDS011;67687;43.508;1.504;2023-06-14T06:38:54;18.30;;;14.20;;
78402;SDS011;67687;43.508;1.504;2023-06-14T06:41:21;20.63;;;14.75;;
78402;SDS011;67687;43.508;1.504;2023-06-14T06:43:48;21.00;;;14.40;;
78402;SDS011;67687;43.508;1.504;2023-06-14T06:46:15;25.27;;;14.48;;
78402;SDS011;67687;43.508;1.504;2023-06-14T06:48:43;22.83;;;14.35;;
78402;SDS011;67687;43.508;1.504;2023-06-14T06:51:11;19.27;;;13.18;;
78402;SDS011;67687;43.508;1.504;2023-06-14T06:53:38;22.20;;;14.27;;
78402;SDS011;67687;43.508;1.504;2023-06-14T06:56:05;18.77;;;13.37;;
78402;SDS011;67687;43.508;1.504;2023-06-14T06:58:32;18.42;;;14.48;;
78402;SDS011;67687;43.508;1.504;2023-06-14T07:01:25;19.88;;;13.77;;
78402;SDS011;67687;43.508;1.504;2023-06-14T07:03:55;22.20;;;14.20;;
78402;SDS011;67687;43.508;1.504;2023-06-14T07:06:23;18.48;;;13.63;;
78402;SDS011;67687;43.508;1.504;2023-06-14T07:08:52;19.77;;;12.80;;
78402;SDS011;67687;43.508;1.504;2023-06-14T07:11:19;18.67;;;13.30;;
78402;SDS011;67687;43.508;1.504;2023-06-14T07:13:46;19.30;;;13.48;;
78402;SDS011;67687;43.508;1.504;2023-06-14T07:16:13;19.52;;;13.13;;
78402;SDS011;67687;43.508;1.504;2023-06-14T07:18:40;20.90;;;14.00;;
78402;SDS011;67687;43.508;1.504;2023-06-14T07:21:07;22.03;;;14.10;;
78402;SDS011;67687;43.508;1.504;2023-06-14T07:23:36;21.02;;;13.40;;
78402;SDS011;67687;43.508;1.504;2023-06-14T07:26:03;18.95;;;13.20;;
78402;SDS011;67687;43.508;1.504;2023-06-14T07:28:30;20.25;;;12.93;;
78402;SDS011;67687;43.508;1.504;2023-06-14T07:30:56;20.40;;;13.85;;
78402;SDS011;67687;43.508;1.504;2023-06-14T07:33:23;20.93;;;13.40;;
78402;SDS011;67687;43.508;1.504;2023-06-14T07:35:50;19.65;;;13.45;;
78402;SDS011;67687;43.508;1.504;2023-06-14T07:38:18;18.92;;;13.75;;
78402;SDS011;67687;43.508;1.504;2023-06-14T07:40:46;22.13;;;14.38;;
78402;SDS011;67687;43.508;1.504;2023-06-14T07:43:12;18.80;;;12.95;;
78402;SDS011;67687;43.508;1.504;2023-06-14T07:45:39;19.53;;;13.37;;
78402;SDS011;67687;43.508;1.504;2023-06-14T07:48:06;18.02;;;12.68;;
78402;SDS011;67687;43.508;1.504;2023-06-14T07:50:33;19.23;;;13.35;;
78402;SDS011;67687;43.508;1.504;2023-06-14T07:53:00;23.50;;;12.93;;
78402;SDS011;67687;43.508;1.504;2023-06-14T07:55:26;18.02;;;12.80;;
78402;SDS011;67687;43.508;1.504;2023-06-14T07:57:55;20.67;;;14.07;;
78402;SDS011;67687;43.508;1.504;2023-06-14T08:00:24;17.15;;;12.95;;
78402;SDS011;67687;43.508;1.504;2023-06-14T08:03:09;20.73;;;12.88;;
78402;SDS011;67687;43.508;1.504;2023-06-14T08:05:42;22.25;;;13.32;;
78402;SDS011;67687;43.508;1.504;2023-06-14T08:08:20;20.98;;;13.23;;
78402;SDS011;67687;43.508;1.504;2023-06-14T08:11:10;20.23;;;13.57;;
78402;SDS011;67687;43.508;1.504;2023-06-14T08:17:31;22.17;;;12.93;;
78402;SDS011;67687;43.508;1.504;2023-06-14T08:20:00;21.92;;;14.15;;
78402;SDS011;67687;43.508;1.504;2023-06-14T08:22:50;21.60;;;13.38;;
78402;SDS011;67687;43.508;1.504;2023-06-14T08:25:20;18.00;;;12.43;;
78402;SDS011;67687;43.508;1.504;2023-06-14T08:27:58;24.50;;;13.35;;
78402;SDS011;67687;43.508;1.504;2023-06-14T08:30:31;20.73;;;12.60;;
78402;SDS011;67687;43.508;1.504;2023-06-14T08:33:00;20.83;;;12.55;;
78402;SDS011;67687;43.508;1.504;2023-06-14T08:35:28;18.25;;;13.18;;
78402;SDS011;67687;43.508;1.504;2023-06-14T08:37:55;22.03;;;12.07;;
78402;SDS011;67687;43.508;1.504;2023-06-14T08:40:22;18.63;;;12.32;;
78402;SDS011;67687;43.508;1.504;2023-06-14T08:42:50;17.85;;;12.10;;
78402;SDS011;67687;43.508;1.504;2023-06-14T08:45:18;19.52;;;12.20;;
78402;SDS011;67687;43.508;1.504;2023-06-14T08:47:46;18.75;;;11.88;;
78402;SDS011;67687;43.508;1.504;2023-06-14T08:50:18;19.70;;;11.73;;
78402;SDS011;67687;43.508;1.504;2023-06-14T08:52:46;16.65;;;11.15;;
78402;SDS011;67687;43.508;1.504;2023-06-14T08:55:16;17.33;;;12.05;;
78402;SDS011;67687;43.508;1.504;2023-06-14T08:57:45;17.13;;;11.43;;
78402;SDS011;67687;43.508;1.504;2023-06-14T09:00:13;19.20;;;12.18;;
78402;SDS011;67687;43.508;1.504;2023-06-14T09:02:40;18.97;;;11.27;;
78402;SDS011;67687;43.508;1.504;2023-06-14T09:05:08;19.80;;;12.07;;
78402;SDS011;67687;43.508;1.504;2023-06-14T09:07:39;19.10;;;11.40;;
78402;SDS011;67687;43.508;1.504;2023-06-14T09:10:10;16.92;;;10.88;;
78402;SDS011;67687;43.508;1.504;2023-06-14T09:12:38;18.55;;;11.68;;
78402;SDS011;67687;43.508;1.504;2023-06-14T09:15:06;17.33;;;11.47;;
78402;SDS011;67687;43.508;1.504;2023-06-14T09:17:34;15.90;;;11.48;;
78402;SDS011;67687;43.508;1.504;2023-06-14T09:20:01;18.13;;;11.60;;
78402;SDS011;67687;43.508;1.504;2023-06-14T09:22:31;17.70;;;11.50;;
78402;SDS011;67687;43.508;1.504;2023-06-14T09:25:00;19.55;;;11.88;;
78402;SDS011;67687;43.508;1.504;2023-06-14T09:27:26;22.63;;;11.60;;
78402;SDS011;67687;43.508;1.504;2023-06-14T09:29:53;18.90;;;12.02;;
78402;SDS011;67687;43.508;1.504;2023-06-14T09:32:20;14.55;;;10.98;;
78402;SDS011;67687;43.508;1.504;2023-06-14T09:34:47;16.05;;;11.10;;
78402;SDS011;67687;43.508;1.504;2023-06-14T09:37:25;19.10;;;12.00;;
78402;SDS011;67687;43.508;1.504;2023-06-14T09:39:53;16.87;;;11.83;;
78402;SDS011;67687;43.508;1.504;2023-06-14T09:42:21;15.88;;;11.00;;
78402;SDS011;67687;43.508;1.504;2023-06-14T09:44:51;19.67;;;11.50;;
78402;SDS011;67687;43.508;1.504;2023-06-14T09:47:18;15.20;;;11.40;;
78402;SDS011;67687;43.508;1.504;2023-06-14T09:49:45;15.35;;;10.85;;
78402;SDS011;67687;43.508;1.504;2023-06-14T09:52:14;16.90;;;11.50;;
78402;SDS011;67687;43.508;1.504;2023-06-14T09:54:42;16.20;;;11.25;;
78402;SDS011;67687;43.508;1.504;2023-06-14T09:57:09;17.25;;;11.30;;
78402;SDS011;67687;43.508;1.504;2023-06-14T09:59:39;18.48;;;11.55;;
78402;SDS011;67687;43.508;1.504;2023-06-14T10:02:08;17.10;;;11.18;;
78402;SDS011;67687;43.508;1.504;2023-06-14T10:04:39;17.43;;;10.67;;
78402;SDS011;67687;43.508;1.504;2023-06-14T10:07:08;14.15;;;10.60;;
78402;SDS011;67687;43.508;1.504;2023-06-14T10:09:35;17.58;;;10.45;;
78402;SDS011;67687;43.508;1.504;2023-06-14T10:12:02;17.00;;;10.60;;
78402;SDS011;67687;43.508;1.504;2023-06-14T10:14:30;16.15;;;10.65;;
78402;SDS011;67687;43.508;1.504;2023-06-14T10:17:00;14.97;;;11.33;;
78402;SDS011;67687;43.508;1.504;2023-06-14T10:19:32;16.20;;;11.23;;
78402;SDS011;67687;43.508;1.504;2023-06-14T10:22:01;17.67;;;10.60;;
78402;SDS011;67687;43.508;1.504;2023-06-14T10:24:33;20.67;;;10.65;;
78402;SDS011;67687;43.508;1.504;2023-06-14T10:27:01;17.42;;;10.95;;
78402;SDS011;67687;43.508;1.504;2023-06-14T10:29:27;16.20;;;10.57;;
78402;SDS011;67687;43.508;1.504;2023-06-14T10:31:57;15.55;;;12.05;;
78402;SDS011;67687;43.508;1.504;2023-06-14T10:34:27;16.50;;;10.27;;
78402;SDS011;67687;43.508;1.504;2023-06-14T10:37:01;16.27;;;10.85;;
78402;SDS011;67687;43.508;1.504;2023-06-14T10:39:29;14.82;;;10.10;;
78402;SDS011;67687;43.508;1.504;2023-06-14T10:41:57;16.03;;;10.87;;
78402;SDS011;67687;43.508;1.504;2023-06-14T10:44:33;15.45;;;10.88;;
78402;SDS011;67687;43.508;1.504;2023-06-14T10:47:06;12.65;;;10.98;;
78402;SDS011;67687;43.508;1.504;2023-06-14T10:49:40;14.85;;;9.75;;
78402;SDS011;67687;43.508;1.504;2023-06-14T10:52:08;15.50;;;10.10;;
78402;SDS011;67687;43.508;1.504;2023-06-14T10:54:55;14.63;;;9.30;;
78402;SDS011;67687;43.508;1.504;2023-06-14T10:57:22;16.25;;;10.35;;
78402;SDS011;67687;43.508;1.504;2023-06-14T10:59:49;16.13;;;9.60;;
78402;SDS011;67687;43.508;1.504;2023-06-14T11:02:20;15.93;;;11.38;;
78402;SDS011;67687;43.508;1.504;2023-06-14T11:05:06;16.95;;;10.32;;
78402;SDS011;67687;43.508;1.504;2023-06-14T11:07:42;13.70;;;10.53;;
78402;SDS011;67687;43.508;1.504;2023-06-14T11:10:17;13.32;;;9.95;;
78402;SDS011;67687;43.508;1.504;2023-06-14T11:12:51;14.90;;;9.85;;
78402;SDS011;67687;43.508;1.504;2023-06-14T11:15:22;14.45;;;10.35;;
78402;SDS011;67687;43.508;1.504;2023-06-14T11:17:54;12.68;;;10.15;;
78402;SDS011;67687;43.508;1.504;2023-06-14T11:20:25;13.83;;;9.87;;
78402;SDS011;67687;43.508;1.504;2023-06-14T11:22:53;14.73;;;10.18;;
78402;SDS011;67687;43.508;1.504;2023-06-14T11:25:20;13.40;;;9.90;;
78402;SDS011;67687;43.508;1.504;2023-06-14T11:27:48;13.55;;;9.82;;
78402;SDS011;67687;43.508;1.504;2023-06-14T11:30:15;13.50;;;9.82;;
78402;SDS011;67687;43.508;1.504;2023-06-14T11:32:45;14.13;;;9.20;;
78402;SDS011;67687;43.508;1.504;2023-06-14T11:35:12;13.73;;;9.50;;
78402;SDS011;67687;43.508;1.504;2023-06-14T11:37:40;12.90;;;9.63;;
78402;SDS011;67687;43.508;1.504;2023-06-14T11:40:08;12.90;;;9.40;;
78402;SDS011;67687;43.508;1.504;2023-06-14T11:42:36;13.98;;;9.77;;
78402;SDS011;67687;43.508;1.504;2023-06-14T11:45:05;14.13;;;9.70;;
78402;SDS011;67687;43.508;1.504;2023-06-14T11:47:34;11.88;;;9.20;;
78402;SDS011;67687;43.508;1.504;2023-06-14T11:50:01;14.90;;;10.15;;
78402;SDS011;67687;43.508;1.504;2023-06-14T11:52:29;14.52;;;9.90;;
78402;SDS011;67687;43.508;1.504;2023-06-14T11:54:57;13.38;;;10.05;;
78402;SDS011;67687;43.508;1.504;2023-06-14T11:57:25;13.73;;;9.43;;
78402;SDS011;67687;43.508;1.504;2023-06-14T11:59:51;14.30;;;9.35;;
78402;SDS011;67687;43.508;1.504;2023-06-14T12:02:19;13.65;;;8.88;;
78402;SDS011;67687;43.508;1.504;2023-06-14T12:04:46;14.48;;;9.30;;
78402;SDS011;67687;43.508;1.504;2023-06-14T12:07:14;13.13;;;9.48;;
78402;SDS011;67687;43.508;1.504;2023-06-14T12:09:43;14.37;;;9.10;;
78402;SDS011;67687;43.508;1.504;2023-06-14T12:12:36;13.63;;;9.20;;
78402;SDS011;67687;43.508;1.504;2023-06-14T12:15:03;13.98;;;9.10;;
78402;SDS011;67687;43.508;1.504;2023-06-14T12:17:31;15.85;;;9.65;;
78402;SDS011;67687;43.508;1.504;2023-06-14T12:20:03;12.25;;;9.27;;
78402;SDS011;67687;43.508;1.504;2023-06-14T12:22:33;12.00;;;9.07;;
78402;SDS011;67687;43.508;1.504;2023-06-14T12:25:00;14.82;;;9.82;;
78402;SDS011;67687;43.508;1.504;2023-06-14T12:27:29;13.48;;;9.27;;
78402;SDS011;67687;43.508;1.504;2023-06-14T12:29:59;12.98;;;9.10;;
78402;SDS011;67687;43.508;1.504;2023-06-14T12:32:27;12.63;;;9.68;;
78402;SDS011;67687;43.508;1.504;2023-06-14T12:34:54;14.73;;;9.10;;
78402;SDS011;67687;43.508;1.504;2023-06-14T12:37:21;10.95;;;8.75;;
78402;SDS011;67687;43.508;1.504;2023-06-14T12:39:47;14.48;;;8.82;;
78402;SDS011;67687;43.508;1.504;2023-06-14T12:42:15;15.70;;;8.50;;
78402;SDS011;67687;43.508;1.504;2023-06-14T12:44:44;13.40;;;9.00;;
78402;SDS011;67687;43.508;1.504;2023-06-14T12:47:10;13.27;;;8.90;;
78402;SDS011;67687;43.508;1.504;2023-06-14T12:49:38;12.48;;;8.57;;
78402;SDS011;67687;43.508;1.504;2023-06-14T12:52:06;11.52;;;8.77;;
78402;SDS011;67687;43.508;1.504;2023-06-14T12:54:34;12.95;;;9.05;;
78402;SDS011;67687;43.508;1.504;2023-06-14T12:57:01;14.60;;;8.48;;
78402;SDS011;67687;43.508;1.504;2023-06-14T12:59:28;14.50;;;8.60;;
78402;SDS011;67687;43.508;1.504;2023-06-14T13:01:59;14.07;;;9.00;;
78402;SDS011;67687;43.508;1.504;2023-06-14T13:04:36;11.13;;;8.23;;
78402;SDS011;67687;43.508;1.504;2023-06-14T13:07:03;13.30;;;8.88;;
78402;SDS011;67687;43.508;1.504;2023-06-14T13:09:30;12.95;;;9.05;;
78402;SDS011;67687;43.508;1.504;2023-06-14T13:11:56;12.37;;;9.00;;
78402;SDS011;67687;43.508;1.504;2023-06-14T13:14:23;11.60;;;8.45;;
78402;SDS011;67687;43.508;1.504;2023-06-14T13:16:51;10.73;;;8.88;;
78402;SDS011;67687;43.508;1.504;2023-06-14T13:19:19;13.77;;;9.00;;
78402;SDS011;67687;43.508;1.504;2023-06-14T13:21:46;12.45;;;8.45;;
78402;SDS011;67687;43.508;1.504;2023-06-14T13:24:13;11.90;;;8.70;;
78402;SDS011;67687;43.508;1.504;2023-06-14T13:26:40;11.35;;;8.10;;
78402;SDS011;67687;43.508;1.504;2023-06-14T13:29:07;11.02;;;8.30;;
78402;SDS011;67687;43.508;1.504;2023-06-14T13:31:34;12.02;;;8.63;;
78402;SDS011;67687;43.508;1.504;2023-06-14T13:34:00;11.07;;;8.02;;
78402;SDS011;67687;43.508;1.504;2023-06-14T13:36:29;12.20;;;8.03;;
78402;SDS011;67687;43.508;1.504;2023-06-14T13:38:55;12.15;;;8.25;;
78402;SDS011;67687;43.508;1.504;2023-06-14T13:41:25;12.75;;;8.05;;
78402;SDS011;67687;43.508;1.504;2023-06-14T13:43:56;10.95;;;7.90;;
78402;SDS011;67687;43.508;1.504;2023-06-14T13:46:23;12.98;;;8.68;;
78402;SDS011;67687;43.508;1.504;2023-06-14T13:48:50;12.20;;;9.10;;
78402;SDS011;67687;43.508;1.504;2023-06-14T13:51:17;12.82;;;8.20;;
78402;SDS011;67687;43.508;1.504;2023-06-14T13:53:47;11.95;;;8.10;;
78402;SDS011;67687;43.508;1.504;2023-06-14T13:56:14;10.88;;;8.38;;
78402;SDS011;67687;43.508;1.504;2023-06-14T13:58:41;11.35;;;7.97;;
78402;SDS011;67687;43.508;1.504;2023-06-14T14:01:08;11.80;;;8.10;;
78402;SDS011;67687;43.508;1.504;2023-06-14T14:03:35;11.65;;;8.40;;
78402;SDS011;67687;43.508;1.504;2023-06-14T14:06:04;13.43;;;8.07;;
78402;SDS011;67687;43.508;1.504;2023-06-14T14:08:32;12.40;;;8.07;;
78402;SDS011;67687;43.508;1.504;2023-06-14T14:11:00;11.07;;;8.07;;
78402;SDS011;67687;43.508;1.504;2023-06-14T14:13:27;11.43;;;8.43;;
78402;SDS011;67687;43.508;1.504;2023-06-14T14:15:54;14.45;;;8.80;;
78402;SDS011;67687;43.508;1.504;2023-06-14T14:18:20;15.48;;;8.88;;
78402;SDS011;67687;43.508;1.504;2023-06-14T14:20:47;10.75;;;8.45;;
78402;SDS011;67687;43.508;1.504;2023-06-14T14:23:14;12.48;;;8.10;;
78402;SDS011;67687;43.508;1.504;2023-06-14T14:25:41;11.67;;;8.53;;
78402;SDS011;67687;43.508;1.504;2023-06-14T14:28:09;13.50;;;8.85;;
78402;SDS011;67687;43.508;1.504;2023-06-14T14:30:36;11.43;;;8.80;;
78402;SDS011;67687;43.508;1.504;2023-06-14T14:33:04;11.63;;;8.70;;
78402;SDS011;67687;43.508;1.504;2023-06-14T14:35:31;13.50;;;9.32;;
78402;SDS011;67687;43.508;1.504;2023-06-14T14:37:58;14.57;;;9.53;;
78402;SDS011;67687;43.508;1.504;2023-06-14T14:40:25;14.07;;;9.40;;
78402;SDS011;67687;43.508;1.504;2023-06-14T14:42:52;15.35;;;9.20;;
78402;SDS011;67687;43.508;1.504;2023-06-14T14:45:20;13.77;;;9.00;;